Terminal Aerodrome Forecast
Issued by NWS Blacksburg, VA

Home | Current Version | Previous Version | Text Only | Print | Product List | Glossary On
Versions: 1 2 3 4 5 6 7 8 9 10 11 12 13 14 15 16 17 18 19 20 21 22 23 24 25 26 27 28 29 30 31 32 33 34 35 36 37 38 39
000
FTUS41 KRNK 020711 AAA
TAFROA
TAF AMD
KROA 020711Z 0207/0306 26011KT P6SM SCT030
     FM020900 29007KT P6SM BKN025 OVC045
     FM021200 30012G20KT P6SM SCT020 BKN050
     FM022000 32008KT P6SM SCT250
     FM030200 36004KT P6SM BKN250=

USA.gov is the U.S. government's official web portal to all federal, state and local government web resources and services.